EKOD/ODE METAR and TAF weather

Enter ICAO airport designator
Station Type Date Time Source
EKOD METAR 2019/12/12 15:50 UTC NOAA

EKOD 121550Z 19008KT 9999 FEW041 BKN060 05/04 Q0995


Station Type Date Time Source
EKOD Decoded METAR 2019/12/12 15:50 UTC NOAA

Odense / Beldringe, Denmark (EKOD) 55-29N 010-20E 17M
Dec 12, 2019 - 10:50 AM EST / 2019.12.12 1550 UTC
Wind: from the S (190 degrees) at 9 MPH (8 KT):0
Visibility: greater than 7 mile(s):0
Sky conditions: mostly cloudy
Temperature: 41 F (5 C)
Dew Point: 39 F (4 C)
Relative Humidity: 93%
Pressure (altimeter): 29.38 in. Hg (0995 hPa)
ob: EKOD 121550Z 19008KT 9999 FEW041 BKN060 05/04 Q0995
cycle: 16

Station Type Date Time Source
EKOD TAF 2015/04/20 17:00 UTC NOAA

TAF
AMD EKOD 201701Z 2017/2018 CNL

Example: see airport list